createdAt,value
2023-01-19T00:00:46.193Z,94236.53
2023-01-19T00:03:16.397Z,94227.31
2023-01-19T00:05:44.012Z,94231.09
2023-01-19T00:08:14.851Z,94230.22
2023-01-19T00:10:43.854Z,94233.38
2023-01-19T00:13:10.793Z,94234.22
2023-01-19T00:15:37.620Z,94232.78
2023-01-19T00:18:04.499Z,94219.69
2023-01-19T00:20:32.973Z,94204.19
2023-01-19T00:23:00.087Z,94232.25
2023-01-19T00:25:26.873Z,94233.59
2023-01-19T00:27:53.447Z,94232.19
2023-01-19T00:30:20.058Z,94234.03
2023-01-19T00:32:46.619Z,94230.44
2023-01-19T00:35:13.148Z,94236.81
2023-01-19T00:37:39.862Z,94238.78
2023-01-19T00:40:07.615Z,94240.81
2023-01-19T00:42:40.168Z,94243.38
2023-01-19T00:45:15.291Z,94234.88
2023-01-19T00:47:42.319Z,94236.28
2023-01-19T00:50:13.758Z,94237.78
2023-01-19T00:52:41.751Z,94234.25
2023-01-19T00:55:10.335Z,94234.00
2023-01-19T00:57:37.802Z,94223.34
2023-01-19T01:00:07.138Z,94233.06
2023-01-19T01:02:34.302Z,94237.09
2023-01-19T01:05:02.989Z,94236.41
2023-01-19T01:07:30.620Z,94222.13
2023-01-19T01:09:57.502Z,94243.56
2023-01-19T01:12:24.631Z,94251.09
2023-01-19T01:14:51.236Z,94253.47
2023-01-19T01:17:17.904Z,94248.06
2023-01-19T01:19:44.476Z,94252.50
2023-01-19T01:22:11.249Z,94244.66
2023-01-19T01:24:38.246Z,94244.22
2023-01-19T01:27:04.783Z,94260.72
2023-01-19T01:29:31.399Z,94261.06
2023-01-19T01:31:58.109Z,94273.69
2023-01-19T01:34:24.683Z,94261.38
2023-01-19T01:36:51.576Z,94274.88
2023-01-19T01:39:18.135Z,94264.50
2023-01-19T01:41:44.713Z,94272.59
2023-01-19T01:44:50.047Z,94279.31
2023-01-19T01:47:42.887Z,94275.75
2023-01-19T01:50:28.675Z,94273.81
2023-01-19T01:53:09.185Z,94269.28
2023-01-19T01:55:45.535Z,94273.28
2023-01-19T01:58:13.368Z,94271.25
2023-01-19T02:00:59.470Z,94268.72
2023-01-19T02:03:27.448Z,94257.66
2023-01-19T02:05:57.702Z,94266.09
2023-01-19T02:09:01.183Z,94276.31
2023-01-19T02:11:48.139Z,94274.44
2023-01-19T02:14:14.852Z,94275.53
2023-01-19T02:16:42.084Z,94263.97
2023-01-19T02:19:13.456Z,94269.56
2023-01-19T02:22:09.824Z,94275.75
2023-01-19T02:24:36.719Z,94280.03
2023-01-19T02:27:04.842Z,94268.25
2023-01-19T02:29:32.962Z,94274.63
2023-01-19T02:32:00.897Z,94270.63
2023-01-19T02:34:28.150Z,94269.59
2023-01-19T02:36:58.623Z,94267.94
2023-01-19T02:39:59.042Z,94267.72
2023-01-19T02:42:45.900Z,94279.88
2023-01-19T02:45:15.262Z,94283.75
2023-01-19T02:47:47.712Z,94272.59
2023-01-19T02:50:31.623Z,94285.19
2023-01-19T02:53:12.484Z,94277.22
2023-01-19T02:55:40.761Z,94283.91
2023-01-19T02:58:24.145Z,94272.50
2023-01-19T03:01:02.758Z,94281.53
2023-01-19T03:03:55.947Z,94291.06
2023-01-19T03:06:30.949Z,94286.50
2023-01-19T03:09:13.083Z,94282.88
2023-01-19T03:11:43.728Z,94288.13
2023-01-19T03:14:20.302Z,94283.97
2023-01-19T03:16:51.231Z,94290.28
2023-01-19T03:19:20.228Z,94300.69
2023-01-19T03:21:52.407Z,94290.94
2023-01-19T03:24:22.684Z,94286.59
2023-01-19T03:26:57.937Z,94287.28
2023-01-19T03:29:28.772Z,94302.25
2023-01-19T03:31:57.356Z,94301.13
2023-01-19T03:34:24.377Z,94297.91
2023-01-19T03:36:55.142Z,94301.34
2023-01-19T03:39:26.722Z,94304.41
2023-01-19T03:41:58.408Z,94307.72
2023-01-19T03:44:27.529Z,94305.00
2023-01-19T03:46:55.928Z,94294.56
2023-01-19T03:49:22.893Z,94296.53
2023-01-19T03:51:49.588Z,94300.94
2023-01-19T03:54:16.260Z,94311.50
2023-01-19T03:56:44.616Z,94308.91
2023-01-19T03:59:11.222Z,94310.56
2023-01-19T04:01:37.965Z,94320.38
2023-01-19T04:04:04.544Z,94305.16
2023-01-19T04:06:32.122Z,94320.56
2023-01-19T04:08:58.820Z,94311.94
2023-01-19T04:11:25.530Z,94320.25
2023-01-19T04:13:52.434Z,94315.13
2023-01-19T04:16:21.131Z,94321.03
2023-01-19T04:18:48.589Z,94325.06
2023-01-19T04:21:15.696Z,94317.81
2023-01-19T04:23:44.364Z,94316.44
2023-01-19T04:26:10.914Z,94313.00
2023-01-19T04:28:37.730Z,94318.91
2023-01-19T04:31:05.997Z,94325.53
2023-01-19T04:33:33.225Z,94317.25
2023-01-19T04:36:00.028Z,94338.22
2023-01-19T04:38:27.165Z,94334.78
2023-01-19T04:40:54.652Z,94334.00
2023-01-19T04:43:22.507Z,94344.59
2023-01-19T04:45:49.471Z,94342.16
2023-01-19T04:48:18.364Z,94338.06
2023-01-19T04:50:45.125Z,94326.16
2023-01-19T04:53:13.651Z,94343.63
2023-01-19T04:55:40.806Z,94347.56
2023-01-19T04:58:07.615Z,94346.16
2023-01-19T05:00:34.198Z,94349.28
2023-01-19T05:03:01.646Z,94340.56
2023-01-19T05:05:29.188Z,94345.41
2023-01-19T05:07:56.085Z,94347.97
2023-01-19T05:10:23.738Z,94337.53
2023-01-19T05:12:50.371Z,94359.13
2023-01-19T05:15:16.991Z,94348.97
2023-01-19T05:17:43.576Z,94349.88
2023-01-19T05:20:13.307Z,94349.25
2023-01-19T05:22:40.979Z,94356.88
2023-01-19T05:25:10.906Z,94370.53
2023-01-19T05:27:38.741Z,94376.53
2023-01-19T05:30:06.422Z,94370.09
2023-01-19T05:32:33.011Z,94365.03
2023-01-19T05:34:59.699Z,94377.19
2023-01-19T05:37:26.342Z,94384.38
2023-01-19T05:39:53.714Z,94376.06
2023-01-19T05:42:21.003Z,94371.56
2023-01-19T05:44:47.726Z,94379.47
2023-01-19T05:47:14.356Z,94381.66
2023-01-19T05:49:41.176Z,94370.25
2023-01-19T05:52:07.833Z,94386.75
2023-01-19T05:54:34.418Z,94378.50
2023-01-19T05:57:01.827Z,94394.78
2023-01-19T05:59:28.527Z,94393.81
2023-01-19T06:01:55.293Z,94379.59
2023-01-19T06:04:22.087Z,94395.09
2023-01-19T06:06:49.210Z,94399.59
2023-01-19T06:09:17.307Z,94401.78
2023-01-19T06:11:45.007Z,94398.16
2023-01-19T06:14:11.990Z,94398.91
2023-01-19T06:16:38.859Z,94394.31
2023-01-19T06:19:05.576Z,94380.59
2023-01-19T06:21:32.637Z,94405.06
2023-01-19T06:23:59.192Z,94411.84
2023-01-19T06:26:26.395Z,94410.75
2023-01-19T06:28:53.092Z,94415.16
2023-01-19T06:31:19.828Z,94419.91
2023-01-19T06:33:46.858Z,94409.56
2023-01-19T06:36:13.466Z,94424.78
2023-01-19T06:38:40.324Z,94424.06
2023-01-19T06:41:07.078Z,94427.88
2023-01-19T06:43:33.674Z,94426.13
2023-01-19T06:46:04.061Z,94417.81
2023-01-19T06:48:30.868Z,94418.34
2023-01-19T06:50:59.512Z,94420.72
2023-01-19T06:53:28.100Z,94436.38
2023-01-19T06:55:59.067Z,94438.78
2023-01-19T06:58:26.133Z,94438.53
2023-01-19T07:00:52.899Z,94431.19
2023-01-19T07:03:22.082Z,94440.09
2023-01-19T07:05:53.120Z,94439.78
2023-01-19T07:08:19.860Z,94437.72
2023-01-19T07:11:23.151Z,94458.19
2023-01-19T07:13:34.325Z,94451.81
2023-01-19T07:16:07.483Z,94447.75
2023-01-19T07:18:35.698Z,94449.28
2023-01-19T07:21:02.655Z,94456.00
2023-01-19T07:23:32.463Z,94451.16
2023-01-19T07:26:03.017Z,94459.28
2023-01-19T07:28:31.092Z,94458.00
2023-01-19T07:30:58.033Z,94465.22
2023-01-19T07:33:28.014Z,94452.34
2023-01-19T07:35:54.995Z,94470.22
2023-01-19T07:38:21.803Z,94474.78
2023-01-19T07:40:48.368Z,94475.81
2023-01-19T07:43:15.548Z,94479.66
2023-01-19T07:45:43.281Z,94486.56
2023-01-19T07:48:10.064Z,94484.72
2023-01-19T07:50:36.710Z,94477.66
2023-01-19T07:53:08.121Z,94490.41
2023-01-19T07:55:34.857Z,94476.88
2023-01-19T07:58:01.463Z,94478.19
2023-01-19T08:00:28.175Z,94487.84
2023-01-19T08:03:00.187Z,94483.16
2023-01-19T08:05:29.553Z,94475.69
2023-01-19T08:08:00.564Z,94483.81
2023-01-19T08:10:29.020Z,94488.03
2023-01-19T08:12:57.483Z,94486.44
2023-01-19T08:15:24.799Z,94486.63
2023-01-19T08:18:02.618Z,94490.78
2023-01-19T08:20:30.004Z,94489.31
2023-01-19T08:23:00.427Z,94496.66
2023-01-19T08:25:39.575Z,94491.78
2023-01-19T08:28:07.272Z,94497.75
2023-01-19T08:30:34.296Z,94495.44
2023-01-19T08:33:09.529Z,94510.22
2023-01-19T08:35:41.832Z,94505.13
2023-01-19T08:38:09.885Z,94505.56
2023-01-19T08:40:39.184Z,94505.56
2023-01-19T08:43:08.939Z,94503.78
2023-01-19T08:45:37.527Z,94505.59
2023-01-19T08:48:06.241Z,94510.97
2023-01-19T08:50:33.943Z,94508.66
2023-01-19T08:53:02.836Z,94508.50
2023-01-19T08:55:30.288Z,94514.81
2023-01-19T08:58:00.196Z,94517.91
2023-01-19T09:00:27.680Z,94510.88
2023-01-19T09:02:54.805Z,94502.72
2023-01-19T09:05:21.442Z,94498.75
2023-01-19T09:07:48.494Z,94508.91
2023-01-19T09:10:16.001Z,94506.22
2023-01-19T09:12:43.911Z,94499.91
2023-01-19T09:15:14.052Z,94494.69
2023-01-19T09:17:44.601Z,94515.50
2023-01-19T09:20:11.577Z,94503.56
2023-01-19T09:22:39.838Z,94510.13
2023-01-19T09:25:07.815Z,94519.84
2023-01-19T09:27:34.873Z,94505.34
2023-01-19T09:30:01.817Z,94511.00
2023-01-19T09:32:28.398Z,94517.47
2023-01-19T09:34:56.503Z,94509.53
2023-01-19T09:37:23.276Z,94504.41
2023-01-19T09:39:49.919Z,94509.84
2023-01-19T09:42:26.662Z,94508.78
2023-01-19T09:44:54.516Z,94506.19
2023-01-19T09:47:27.536Z,94510.63
2023-01-19T09:50:01.226Z,94510.50
2023-01-19T09:52:29.399Z,94508.50
2023-01-19T09:54:57.802Z,94506.91
2023-01-19T09:57:26.903Z,94510.72
2023-01-19T09:59:59.740Z,94505.97
2023-01-19T10:02:32.241Z,94512.50
2023-01-19T10:05:02.947Z,94506.88
2023-01-19T10:07:53.121Z,94498.94
2023-01-19T10:10:32.159Z,94487.97
2023-01-19T10:13:16.961Z,94494.25
2023-01-19T10:16:04.188Z,94495.69
2023-01-19T10:18:47.209Z,94481.56
2023-01-19T10:21:19.558Z,94487.88
2023-01-19T10:23:52.266Z,94478.13
2023-01-19T10:26:27.515Z,94488.00
2023-01-19T10:29:02.463Z,94493.25
2023-01-19T10:31:29.215Z,94492.16
2023-01-19T10:33:55.908Z,94489.16
2023-01-19T10:36:29.882Z,94490.28
2023-01-19T10:38:56.598Z,94479.41
2023-01-19T10:41:42.993Z,94479.19
2023-01-19T10:44:10.904Z,94483.19
2023-01-19T10:46:44.047Z,94476.84
2023-01-19T10:49:44.744Z,94476.59
2023-01-19T10:52:44.882Z,94471.00
2023-01-19T10:55:25.469Z,94467.75
2023-01-19T10:57:53.642Z,94472.00
2023-01-19T11:00:40.435Z,94463.97
2023-01-19T11:03:31.921Z,94450.75
2023-01-19T11:06:14.025Z,94460.81
2023-01-19T11:08:41.550Z,94456.84
2023-01-19T11:11:09.365Z,94458.94
2023-01-19T11:13:36.484Z,94458.63
2023-01-19T11:16:08.319Z,94460.72
2023-01-19T11:18:38.465Z,94453.88
2023-01-19T11:21:09.345Z,94451.09
2023-01-19T11:23:42.975Z,94455.69
2023-01-19T11:26:57.787Z,94454.25
2023-01-19T11:29:26.763Z,94455.03
2023-01-19T11:31:54.863Z,94448.97
2023-01-19T11:34:34.876Z,94445.66
2023-01-19T11:37:25.041Z,94442.19
2023-01-19T11:39:55.098Z,94449.84
2023-01-19T11:42:22.214Z,94446.38
2023-01-19T11:45:17.927Z,94438.34
2023-01-19T11:47:49.359Z,94419.69
2023-01-19T11:50:23.303Z,94430.88
2023-01-19T11:53:25.556Z,94436.75
2023-01-19T11:55:57.038Z,94435.25
2023-01-19T11:58:24.662Z,94432.31
2023-01-19T12:01:27.748Z,94433.97
2023-01-19T12:04:14.985Z,94433.59
2023-01-19T12:06:47.846Z,94428.94
2023-01-19T12:09:22.465Z,94431.63
2023-01-19T12:12:09.108Z,94429.28
2023-01-19T12:14:47.716Z,94418.78
2023-01-19T12:17:26.133Z,94421.88
2023-01-19T12:20:00.981Z,94415.56
2023-01-19T12:22:29.981Z,94435.06
2023-01-19T12:25:20.772Z,94414.63
2023-01-19T12:27:49.775Z,94430.00
2023-01-19T12:30:23.531Z,94426.44
2023-01-19T12:32:51.492Z,94424.72
2023-01-19T12:35:56.126Z,94418.31
2023-01-19T12:38:53.832Z,94425.41
2023-01-19T12:41:24.708Z,94417.94
2023-01-19T12:44:10.467Z,94428.78
2023-01-19T12:46:39.035Z,94424.53
2023-01-19T12:49:13.368Z,94419.81
2023-01-19T12:51:39.969Z,94421.19
2023-01-19T12:54:08.712Z,94412.59
2023-01-19T12:56:38.160Z,94416.56
2023-01-19T12:59:05.482Z,94418.38
2023-01-19T13:01:32.157Z,94416.59
2023-01-19T13:04:02.419Z,94401.63
2023-01-19T13:06:47.264Z,94417.44
2023-01-19T13:09:33.246Z,94416.06
2023-01-19T13:12:29.467Z,94400.88
2023-01-19T13:15:28.539Z,94409.22
2023-01-19T13:17:55.576Z,94406.78
2023-01-19T13:20:43.609Z,94411.34
2023-01-19T13:23:28.646Z,94420.16
2023-01-19T13:26:06.893Z,94405.47
2023-01-19T13:28:41.562Z,94404.00
2023-01-19T13:31:10.371Z,94401.97
2023-01-19T13:33:43.769Z,94412.09
2023-01-19T13:36:30.608Z,94415.44
2023-01-19T13:39:01.625Z,94404.28
2023-01-19T13:41:35.624Z,94400.97
2023-01-19T13:44:23.975Z,94404.00
2023-01-19T13:46:52.809Z,94399.59
2023-01-19T13:49:28.969Z,94402.13
2023-01-19T13:52:07.668Z,94402.91
2023-01-19T13:54:34.203Z,94392.88
2023-01-19T13:57:00.848Z,94393.41
2023-01-19T13:59:27.649Z,94394.25
2023-01-19T14:01:54.514Z,94397.84
2023-01-19T14:04:33.330Z,94396.66
2023-01-19T14:07:06.148Z,94389.69
2023-01-19T14:09:32.896Z,94393.03
2023-01-19T14:12:14.178Z,94393.59
2023-01-19T14:14:49.597Z,94399.28
2023-01-19T14:17:25.069Z,94392.16
2023-01-19T14:19:54.460Z,94389.75
2023-01-19T14:22:21.268Z,94393.41
2023-01-19T14:24:47.847Z,94392.34
2023-01-19T14:27:22.938Z,94391.59
2023-01-19T14:29:53.615Z,94388.56
2023-01-19T14:32:24.847Z,94392.34
2023-01-19T14:35:04.208Z,94392.66
2023-01-19T14:37:33.912Z,94395.16
2023-01-19T14:40:13.049Z,94393.84
2023-01-19T14:43:03.298Z,94385.84
2023-01-19T14:45:37.166Z,94389.69
2023-01-19T14:48:07.174Z,94380.75
2023-01-19T14:50:38.245Z,94385.47
2023-01-19T14:53:16.562Z,94381.50
2023-01-19T14:55:52.759Z,94385.53
2023-01-19T14:58:21.446Z,94388.97
2023-01-19T15:00:49.761Z,94388.69
2023-01-19T15:03:17.051Z,94387.06
2023-01-19T15:05:46.029Z,94387.41
2023-01-19T15:08:20.026Z,94395.13
2023-01-19T15:10:46.852Z,94377.13
2023-01-19T15:13:20.737Z,94390.59
2023-01-19T15:15:47.383Z,94387.19
2023-01-19T15:18:17.383Z,94380.69
2023-01-19T15:20:44.144Z,94379.19
2023-01-19T15:23:11.689Z,94388.09
2023-01-19T15:25:42.136Z,94359.38
2023-01-19T15:28:13.979Z,94381.38
2023-01-19T15:30:40.548Z,94371.94
2023-01-19T15:33:11.285Z,94365.91
2023-01-19T15:35:37.829Z,94370.03
2023-01-19T15:38:04.429Z,94369.88
2023-01-19T15:40:31.799Z,94371.84
2023-01-19T15:42:58.539Z,94368.53
2023-01-19T15:45:53.848Z,94356.47
2023-01-19T15:48:22.670Z,94364.91
2023-01-19T15:50:49.276Z,94351.91
2023-01-19T15:53:18.423Z,94362.13
2023-01-19T15:55:49.643Z,94358.38
2023-01-19T15:58:16.619Z,94363.44
2023-01-19T16:00:43.328Z,94353.41
2023-01-19T16:03:11.075Z,94351.06
2023-01-19T16:05:43.192Z,94358.59
2023-01-19T16:08:11.560Z,94342.31
2023-01-19T16:10:38.186Z,94353.25
2023-01-19T16:13:04.737Z,94337.88
2023-01-19T16:15:32.501Z,94352.72
2023-01-19T16:17:59.196Z,94354.78
2023-01-19T16:20:26.184Z,94350.88
2023-01-19T16:22:54.956Z,94358.44
2023-01-19T16:25:23.685Z,94356.72
2023-01-19T16:27:50.555Z,94354.91
2023-01-19T16:30:19.658Z,94357.16
2023-01-19T16:32:46.968Z,94351.09
2023-01-19T16:35:15.525Z,94354.19
2023-01-19T16:37:42.572Z,94347.59
2023-01-19T16:40:09.968Z,94323.69
2023-01-19T16:42:36.615Z,94334.94
2023-01-19T16:45:03.386Z,94341.75
2023-01-19T16:47:30.070Z,94346.28
2023-01-19T16:49:56.619Z,94340.72
2023-01-19T16:52:23.434Z,94341.84
2023-01-19T16:54:50.130Z,94348.94
2023-01-19T16:57:16.841Z,94343.09
2023-01-19T16:59:45.169Z,94341.25
2023-01-19T17:02:11.921Z,94343.59
2023-01-19T17:04:38.556Z,94347.78
2023-01-19T17:07:05.200Z,94338.91
2023-01-19T17:09:31.993Z,94331.91
2023-01-19T17:11:58.584Z,94352.91
2023-01-19T17:14:25.290Z,94343.56
2023-01-19T17:16:51.997Z,94339.84
2023-01-19T17:19:20.793Z,94337.25
2023-01-19T17:21:49.043Z,94339.31
2023-01-19T17:24:16.213Z,94343.84
2023-01-19T17:26:43.415Z,94339.34
2023-01-19T17:29:10.580Z,94338.94
2023-01-19T17:31:37.901Z,94332.03
2023-01-19T17:34:05.099Z,94344.19
2023-01-19T17:36:32.907Z,94346.75
2023-01-19T17:39:01.274Z,94337.75
2023-01-19T17:41:30.737Z,94346.84
2023-01-19T17:43:59.430Z,94348.81
2023-01-19T17:46:28.001Z,94346.09
2023-01-19T17:49:01.859Z,94352.19
2023-01-19T17:51:29.543Z,94328.16
2023-01-19T17:53:57.042Z,94338.16
2023-01-19T17:56:28.428Z,94346.16
2023-01-19T17:58:58.348Z,94339.13
2023-01-19T18:01:28.549Z,94342.56
2023-01-19T18:03:55.726Z,94331.94
2023-01-19T18:06:22.571Z,94333.59
2023-01-19T18:08:50.415Z,94333.59
2023-01-19T18:11:19.687Z,94331.56
2023-01-19T18:13:48.365Z,94325.97
2023-01-19T18:16:19.778Z,94334.13
2023-01-19T18:18:46.393Z,94321.09
2023-01-19T18:21:14.606Z,94335.09
2023-01-19T18:23:43.504Z,94324.09
2023-01-19T18:26:12.598Z,94331.16
2023-01-19T18:28:39.535Z,94310.31
2023-01-19T18:31:08.116Z,94320.28
2023-01-19T18:33:34.948Z,94306.75
2023-01-19T18:36:01.811Z,94315.88
2023-01-19T18:38:28.631Z,94321.03
2023-01-19T18:41:05.333Z,94313.47
2023-01-19T18:43:32.645Z,94315.72
2023-01-19T18:45:59.445Z,94294.94
2023-01-19T18:48:26.372Z,94296.19
2023-01-19T18:50:53.794Z,94301.34
2023-01-19T18:53:20.939Z,94302.88
2023-01-19T18:55:55.860Z,94305.44
2023-01-19T18:58:23.543Z,94312.53
2023-01-19T19:00:50.480Z,94304.84
2023-01-19T19:03:17.874Z,94308.63
2023-01-19T19:05:44.595Z,94311.06
2023-01-19T19:08:11.475Z,94303.38
2023-01-19T19:10:40.746Z,94306.84
2023-01-19T19:13:08.471Z,94304.41
2023-01-19T19:15:35.199Z,94307.56
2023-01-19T19:18:01.941Z,94284.78
2023-01-19T19:20:28.553Z,94307.25
2023-01-19T19:22:56.119Z,94297.47
2023-01-19T19:25:23.260Z,94295.66
2023-01-19T19:27:53.019Z,94281.44
2023-01-19T19:30:20.743Z,94305.00
2023-01-19T19:32:56.057Z,94299.59
2023-01-19T19:35:26.001Z,94295.81
2023-01-19T19:37:57.762Z,94295.03
2023-01-19T19:40:28.518Z,94285.94
2023-01-19T19:42:58.320Z,94284.59
2023-01-19T19:45:25.496Z,94299.59
2023-01-19T19:47:52.219Z,94294.28
2023-01-19T19:50:18.940Z,94295.03
2023-01-19T19:52:45.827Z,94301.09
2023-01-19T19:55:12.777Z,94306.69
2023-01-19T19:57:39.573Z,94290.38
2023-01-19T20:00:07.033Z,94310.16
2023-01-19T20:02:33.629Z,94306.53
2023-01-19T20:05:00.555Z,94299.56
2023-01-19T20:07:27.263Z,94298.66
2023-01-19T20:09:55.141Z,94312.56
2023-01-19T20:12:21.930Z,94310.16
2023-01-19T20:14:48.677Z,94311.38
2023-01-19T20:17:15.631Z,94291.28
2023-01-19T20:19:43.734Z,94307.59
2023-01-19T20:22:10.778Z,94310.28
2023-01-19T20:24:37.510Z,94307.72
2023-01-19T20:27:04.279Z,94306.97
2023-01-19T20:29:30.953Z,94320.09
2023-01-19T20:31:57.756Z,94318.44
2023-01-19T20:34:28.126Z,94319.63
2023-01-19T20:36:55.554Z,94310.88
2023-01-19T20:39:23.410Z,94320.34
2023-01-19T20:41:51.420Z,94314.63
2023-01-19T20:44:23.587Z,94307.50
2023-01-19T20:46:51.127Z,94318.38
2023-01-19T20:49:19.263Z,94337.41
2023-01-19T20:51:47.118Z,94333.75
2023-01-19T20:54:17.105Z,94329.63
2023-01-19T20:56:44.027Z,94333.34
2023-01-19T20:59:12.018Z,94336.63
2023-01-19T21:01:40.215Z,94340.09
2023-01-19T21:04:07.345Z,94347.66
2023-01-19T21:06:34.607Z,94339.03
2023-01-19T21:09:01.386Z,94335.16
2023-01-19T21:11:28.288Z,94358.84
2023-01-19T21:13:57.774Z,94352.94
2023-01-19T21:16:29.824Z,94362.88
2023-01-19T21:18:56.503Z,94353.66
2023-01-19T21:21:30.745Z,94339.25
2023-01-19T21:23:58.833Z,94344.63
2023-01-19T21:26:25.656Z,94361.25
2023-01-19T21:28:52.292Z,94344.59
2023-01-19T21:31:19.117Z,94350.09
2023-01-19T21:33:45.881Z,94342.44
2023-01-19T21:36:12.430Z,94350.59
2023-01-19T21:38:39.524Z,94356.78
2023-01-19T21:41:12.557Z,94356.97
2023-01-19T21:43:40.992Z,94344.91
2023-01-19T21:46:19.518Z,94353.47
2023-01-19T21:48:46.976Z,94361.44
2023-01-19T21:51:14.787Z,94354.59
2023-01-19T21:53:42.418Z,94368.31
2023-01-19T21:56:10.590Z,94371.28
2023-01-19T21:58:37.665Z,94366.06
2023-01-19T22:01:07.352Z,94376.50
2023-01-19T22:03:34.195Z,94375.06
2023-01-19T22:06:12.774Z,94372.28
2023-01-19T22:08:40.136Z,94392.03
2023-01-19T22:11:08.693Z,94398.66
2023-01-19T22:13:38.656Z,94387.56
2023-01-19T22:16:08.799Z,94392.53
2023-01-19T22:18:36.232Z,94397.50
2023-01-19T22:21:17.957Z,94401.34
2023-01-19T22:23:47.683Z,94387.19
2023-01-19T22:26:14.274Z,94400.19
2023-01-19T22:28:40.846Z,94400.06
2023-01-19T22:31:08.838Z,94393.94
2023-01-19T22:33:36.112Z,94409.19
2023-01-19T22:36:19.896Z,94416.34
2023-01-19T22:38:51.765Z,94417.38
2023-01-19T22:41:25.928Z,94419.31
2023-01-19T22:43:55.070Z,94410.97
2023-01-19T22:46:23.875Z,94414.88
2023-01-19T22:48:51.405Z,94411.84
2023-01-19T22:51:19.695Z,94395.72
2023-01-19T22:53:47.414Z,94413.88
2023-01-19T22:56:20.165Z,94415.34
2023-01-19T22:58:47.725Z,94412.72
2023-01-19T23:01:17.396Z,94408.75
2023-01-19T23:03:44.178Z,94412.88
2023-01-19T23:06:13.796Z,94418.06
2023-01-19T23:08:41.464Z,94415.13
2023-01-19T23:11:20.207Z,94416.53
2023-01-19T23:13:47.330Z,94423.19
2023-01-19T23:16:14.270Z,94418.66
2023-01-19T23:18:42.000Z,94432.94
2023-01-19T23:21:12.452Z,94430.84
2023-01-19T23:23:39.227Z,94437.28
2023-01-19T23:26:19.600Z,94428.41
2023-01-19T23:28:47.313Z,94435.59
2023-01-19T23:31:22.747Z,94440.25
2023-01-19T23:33:55.349Z,94436.53
2023-01-19T23:36:24.095Z,94440.38
2023-01-19T23:38:52.954Z,94443.03
2023-01-19T23:41:20.135Z,94438.81
2023-01-19T23:43:46.808Z,94444.88
2023-01-19T23:46:14.703Z,94435.97
2023-01-19T23:48:41.543Z,94455.69
2023-01-19T23:51:16.915Z,94451.03
2023-01-19T23:53:43.786Z,94434.47
2023-01-19T23:56:17.624Z,94454.94
2023-01-19T23:58:49.032Z,94455.53
